GW4771 Weather Reports


time (UTC)temp
F
wind
direction
speed
knots
gust
knots
rain 1hr
in
rain 24hr
in
rain mn
in
humidity
%
barometer
mb
20260510100024 50 245 0.0 0.9 0.00 0.09 0.00 96 1009.2
20260510095045 50 255 0.0 0.9 0.00 0.09 0.00 96 1008.8
20260510094025 50 171 0.0 0.9 0.00 0.09 0.00 96 1008.6
20260510093025 50 280 0.0 0.9 0.00 0.09 0.00 95 1008.5
20260510092026 51 184 0.0 0.9 0.00 0.09 0.00 95 1008.4
20260510091025 51 232 0.9 1.7 0.00 0.09 0.00 95 1008.3
20260510090026 51 230 0.9 2.6 0.00 0.09 0.00 95 1008.1
20260510085046 51 229 0.9 1.7 0.00 0.09 0.00 95 1007.9
20260510084026 51 230 0.9 1.7 0.00 0.09 0.00 94 1008.1
20260510083026 51 207 0.9 1.7 0.00 0.09 0.00 95 1007.9
20260510082026 51 219 1.7 2.6 0.00 0.09 0.00 95 1007.7
20260510081106 51 218 1.7 1.7 0.00 0.09 0.00 96 1007.6
20260510080026 51 196 0.9 1.7 0.00 0.09 0.00 96 1007.9
20260510075027 51 206 1.7 2.6 0.00 0.09 0.00 96 1008.4
20260510074027 51 194 0.9 1.7 0.00 0.09 0.00 97 1008.7
20260510073027 51 240 0.9 1.7 0.00 0.09 0.00 96 1009.1
20260510072027 51 253 0.9 1.7 0.00 0.09 0.00 95 1009.1
20260510071027 51 240 0.0 0.9 0.00 0.09 0.00 95 1009.2
20260510070027 51 220 0.0 0.9 0.00 0.09 0.00 95 1008.9
20260510065047 51 232 0.0 1.7 0.00 0.09 0.00 96 1008.7
20260510064027 50 231 0.9 1.7 0.00 0.09 0.00 96 1008.7
20260510063027 50 220 0.0 0.9 0.00 0.09 0.00 96 1008.6
20260510062028 50 238 0.0 0.9 0.00 0.09 0.00 97 1008.8
20260510061029 50 248 0.9 1.7 0.00 0.09 0.00 96 1008.6
20260510060028 50 229 0.0 0.9 0.00 0.09 0.00 95 1008.5
20260510055028 50 236 0.0 0.9 0.00 0.09 0.00 95 1008.4
20260510054028 50 207 0.0 0.9 0.00 0.09 0.00 94 1008.4
20260510053029 51 175 0.0 0.9 0.00 0.09 0.00 94 1008.4
20260510052029 51 255 0.9 2.6 0.00 0.09 0.00 93 1008.4
20260510051049 51 223 0.9 1.7 0.00 0.09 0.00 92 1008.6
20260510050029 51 252 0.9 2.6 0.00 0.09 0.00 90 1008.3
20260510045030 51 218 0.9 2.6 0.00 0.09 0.00 91 1008.2
20260510044029 52 224 0.9 1.7 0.00 0.09 0.00 90 1008.2
20260510043030 50 186 2.6 4.3 0.00 0.09 0.00 96 1008.0
20260510042030 50 205 0.9 2.6 0.00 0.09 0.00 99 1008.4
20260510041151 49 217 0.0 0.9 0.00 0.09 0.00 99 1008.6
20260510040030 49 257 0.0 0.9 0.00 0.09 0.00 99 1008.5
20260510035030 49 237 0.0 1.7 0.00 0.09 0.09 99 1008.4
20260510034030 49 234 0.0 0.9 0.00 0.09 0.09 99 1008.3
20260510033030 49 239 0.0 0.9 0.00 0.09 0.09 98 1008.5
20260510032050 49 255 0.0 0.0 0.00 0.09 0.09 98 1008.6
20260510031051 49 248 0.0 0.9 0.00 0.09 0.09 98 1008.6
20260510030030 49 239 0.0 0.9 0.00 0.09 0.09 98 1008.6
20260510025031 49 228 0.0 0.9 0.00 0.09 0.09 98 1008.6
20260510024031 49 0.0 0.0 0.00 0.09 0.09 98 1008.6
20260510023051 49 231 0.0 0.9 0.00 0.09 0.09 98 1008.6
20260510022031 49 248 0.0 1.7 0.00 0.09 0.09 98 1008.6
20260510021031 49 244 0.0 0.9 0.00 0.09 0.09 98 1008.4
20260510020032 50 241 0.0 0.9 0.00 0.09 0.09 98 1008.3
20260510015032 50 250 0.9 1.7 0.00 0.09 0.09 98 1008.6
20260510014017 50 235 0.9 1.7 0.00 0.09 0.09 98 1008.6
20260510013032 50 247 0.9 1.7 0.00 0.09 0.09 98 1008.7
20260510012032 50 205 0.0 0.9 0.00 0.09 0.09 98 1008.8
20260510011032 50 186 0.0 0.9 0.00 0.09 0.09 98 1008.8
20260510010032 50 180 0.0 0.9 0.00 0.09 0.09 98 1008.9
20260510005033 50 281 0.0 0.9 0.00 0.09 0.09 98 1008.8
20260510004038 50 232 0.0 0.9 0.00 0.09 0.09 98 1008.6
20260510003118 50 245 0.0 0.9 0.00 0.09 0.09 97 1008.5
20260510002019 50 223 0.0 0.0 0.00 0.09 0.09 97 1008.3
20260510001018 51 214 0.9 1.7 0.00 0.09 0.09 97 1008.3
20260510000018 51 238 0.0 1.7 0.00 0.09 0.09 97 1008.3
20260509235018 51 308 0.0 0.0 0.00 0.09 0.09 97 1008.1
20260509234019 51 203 0.0 0.9 0.00 0.09 0.09 97 1008.0
20260509233019 51 170 0.0 0.9 0.00 0.09 0.09 97 1007.9
20260509232019 51 262 0.0 0.9 0.00 0.09 0.09 97 1007.8
20260509231019 51 235 0.0 0.9 0.00 0.09 0.09 97 1007.8
20260509230039 51 229 0.0 0.9 0.00 0.09 0.09 97 1007.8
20260509225019 51 250 0.0 0.9 0.00 0.09 0.09 97 1007.8
20260509224019 51 266 0.0 0.0 0.00 0.09 0.09 97 1007.9
20260509223019 51 0.0 0.0 0.00 0.09 0.09 97 1007.9
20260509222020 51 219 0.0 0.9 0.00 0.09 0.09 97 1008.0
20260509221020 51 180 0.0 0.9 0.00 0.09 0.09 97 1008.1
20260509220020 51 44 0.0 0.9 0.00 0.09 0.09 97 1008.1
20260509215020 51 208 0.0 0.9 0.00 0.09 0.09 97 1008.2
20260509214020 51 233 0.0 0.9 0.00 0.09 0.09 97 1008.3
20260509213020 50 0.0 0.0 0.00 0.09 0.09 97 1008.4
20260509212040 50 0.0 0.0 0.01 0.09 0.09 97 1008.7
20260509211020 50 0.0 0.0 0.01 0.09 0.09 96 1008.7
20260509210021 50 287 0.9 1.7 0.01 0.09 0.09 96 1008.9
20260509205021 50 250 0.0 0.9 0.01 0.09 0.09 96 1008.9
20260509204040 50 234 0.0 0.9 0.01 0.09 0.09 96 1009.0
20260509203021 50 244 0.0 0.9 0.01 0.09 0.09 96 1009.1
20260509202021 50 156 0.0 0.9 0.01 0.09 0.09 96 1009.1
20260509201021 50 0.0 0.0 0.02 0.08 0.08 96 1009.2
20260509200022 50 185 0.9 1.7 0.02 0.08 0.08 95 1009.2
20260509195022 50 201 0.0 0.9 0.02 0.08 0.08 96 1009.2
20260509194021 50 189 0.9 1.7 0.02 0.08 0.08 96 1009.3
20260509193022 49 267 0.0 0.9 0.02 0.08 0.08 96 1009.4
20260509192022 49 262 0.9 1.7 0.01 0.07 0.07 95 1009.4
20260509191022 49 242 0.9 1.7 0.01 0.07 0.07 95 1009.5
20260509190023 50 252 0.9 1.7 0.01 0.06 0.06 95 1009.6
20260509185022 50 269 0.9 1.7 0.01 0.06 0.06 95 1009.5
20260509184022 50 2 0.0 0.0 0.00 0.06 0.06 94 1009.6
20260509183023 50 0.0 0.0 0.00 0.06 0.06 94 1009.7
20260509182023 49 0.0 0.0 0.01 0.06 0.06 94 1009.8
20260509181023 49 27 0.0 0.9 0.01 0.06 0.06 94 1009.7
20260509180023 49 21 0.0 0.9 0.02 0.06 0.06 94 1009.7
20260509175023 49 0.0 0.0 0.02 0.06 0.06 94 1009.7
20260509174023 49 54 0.0 0.9 0.02 0.06 0.06 94 1009.9
20260509173043 48 68 0.0 1.7 0.03 0.05 0.05 93 1010.0
20260509172024 48 72 0.9 1.7 0.03 0.05 0.05 93 1010.3
20260509171024 48 112 0.0 0.0 0.03 0.05 0.05 93 1010.4
20260509170025 48 56 0.0 0.9 0.03 0.04 0.04 92 1010.5
20260509165043 48 83 0.0 0.9 0.04 0.04 0.04 92 1010.6
20260509164024 48 64 0.0 0.9 0.03 0.03 0.03 91 1010.7
20260509163024 48 71 0.0 0.9 0.03 0.03 0.03 91 1010.9
20260509162024 48 51 0.0 0.9 0.02 0.02 0.02 90 1011.0
20260509161044 48 50 0.0 0.9 0.02 0.02 0.02 89 1011.1
20260509160020 48 61 0.0 0.9 0.01 0.01 0.01 88 1011.2
20260509155020 48 64 0.0 0.9 0.00 0.00 0.00 85 1011.4
20260509154020 48 270 0.0 0.9 0.00 0.00 0.00 85 1011.6
20260509153020 48 188 0.0 0.9 0.00 0.00 0.00 80 1011.8
20260509152020 48 162 0.0 0.0 0.00 0.00 0.00 78 1011.7
20260509151020 48 55 0.9 1.7 0.00 0.00 0.00 80 1011.7
20260509150018 48 65 0.0 1.7 0.00 0.00 0.00 78 1011.7
20260509145017 48 164 0.0 0.9 0.00 0.00 0.00 78 1011.8
20260509144018 48 152 0.0 0.9 0.00 0.00 0.00 74 1011.9
20260509143021 48 53 0.0 0.9 0.00 0.00 0.00 73 1011.9
20260509142018 48 63 0.0 1.7 0.00 0.00 0.00 68 1011.9
20260509141018 48 63 0.0 1.7 0.00 0.00 0.00 66 1011.7
20260509140018 48 55 0.0 0.9 0.00 0.00 0.00 62 1011.6
20260509135018 48 206 0.0 0.9 0.00 0.00 0.00 62 1011.3
20260509134102 47 205 0.0 0.9 0.00 0.00 0.00 63 1011.4
20260509133019 47 75 0.0 0.9 0.00 0.00 0.00 62 1011.4
20260509132019 47 63 0.9 1.7 0.00 0.00 0.00 62 1011.3
20260509131039 46 60 0.9 1.7 0.00 0.00 0.00 63 1011.3
20260509130019 46 58 0.9 1.7 0.00 0.00 0.00 65 1011.4
20260509125019 45 65 0.9 1.7 0.00 0.00 0.00 66 1011.6
20260509124020 45 66 1.7 2.6 0.00 0.00 0.00 64 1011.8
20260509123019 44 69 0.0 1.7 0.00 0.00 0.00 68 1011.9
20260509122020 44 74 0.0 1.7 0.00 0.00 0.00 69 1012.0
20260509121019 44 56 0.9 1.7 0.00 0.00 0.00 73 1012.0
20260509120020 43 67 1.7 1.7 0.00 0.00 0.00 67 1012.1
20260509115057 43 105 0.0 1.7 0.00 0.00 0.00 74 1012.1
20260509114020 42 72 0.9 1.7 0.00 0.00 0.00 79 1012.0
20260509113040 41 60 0.9 1.7 0.00 0.00 0.00 79 1012.0
20260509112020 40 66 0.9 1.7 0.00 0.00 0.00 86 1012.4
20260509111017 39 282 0.0 0.9 0.00 0.00 0.00 88 1012.6
20260509110018 38 36 0.0 1.7 0.00 0.00 0.00 89 1012.6
20260509105018 38 51 0.0 0.9 0.00 0.00 0.00 90 1012.6
20260509104018 38 50 0.0 1.7 0.00 0.00 0.00 91 1012.6
20260509103021 37 40 0.0 0.9 0.00 0.00 0.00 92 1012.6
20260509102018 37 43 0.9 1.7 0.00 0.00 0.00 92 1012.4
20260509101019 36 40 0.9 1.7 0.00 0.00 0.00 93 1012.4